Taradale, New Zealand
Current Conditions -  °F | °C
As of 2:30 AM on Sunday 26 Oct 2014 (Local Time) from NZWN Reporting Station
Clear Clear  
Wind Chill: 54°   Ceiling: Unl
Heat Index: 54°   Visibility: 6mi
Dew Point: 41°   Wind: 29mph
Humidity: 62%   Direction: 360°N
Pressure: 29.94"   Gusts: 41mph
Location:  39.53°S, 176.85°E
Report Text: NZWN 251430Z AUTO 36025G36KT 9999 NCD 12/05 Q1014 NOSIG
Loading
Personal Weather Stations






























Interactive Weather Map
Tropical Storm Tracking
New forecast layout! Learn more

10-Day Weather Forecast

Advertisements
Track Severe Weather on mobile